SouthEast Lincoln: Weather Underground Data


Davis Vantage Pro Historical Data
 
Daily Summary for February 20, 2018 Units:  English    Metric   Both
« Previous Day
Next Day »
Daily Weekly Monthly Yearly Custom
  Current: High: Low: Average:
Temperature: 20.8 °F 22.0 °F 15.6 °F 19.6 °F
Dew Point: 12.6 °F 19.8 °F 10.8 °F 14.9 °F
Humidity: 70% 91% 69% 82%
Wind Speed: 4.0mph 16.0mph 0.0mph 2.4mph
Wind Gust: 6.0mph 16.0mph - -
Wind:NNW - - West
Pressure: 30.33 in 30.33 in 29.94 in -
Precipitation: 0.02 in      
Historical Graphs
 
 
Tabular Data for February 20, 2018
Time Temperature Dew Point Pressure Wind Wind Speed Wind Gust Humidity Rainfall Rate (Hourly) solar
00:00 22.0 °F 19.8 °F 29.95 in Calm     91% 0.03 in 0.00 W/m2
00:05 21.9 °F 19.7 °F 29.95 in Calm     91% 0.03 in 0.00 W/m2
00:10 21.8 °F 19.6 °F 29.95 in Calm     91% 0.02 in 0.00 W/m2
00:15 21.8 °F 19.6 °F 29.95 in Calm     91% 0.03 in 0.00 W/m2
00:20 21.8 °F 19.6 °F 29.94 in Calm     91% 0.03 in 0.00 W/m2
00:25 21.8 °F 19.6 °F 29.95 in Calm     91% 0.03 in 0.00 W/m2
00:30 21.8 °F 19.6 °F 29.94 in Calm     91% 0.03 in 0.00 W/m2
00:35 21.8 °F 19.6 °F 29.94 in Calm   1.0 mph 91% 0.02 in 0.00 W/m2
00:40 21.7 °F 19.5 °F 29.94 in Calm     91% 0.02 in 0.00 W/m2
00:45 21.7 °F 19.5 °F 29.94 in Calm     91% 0.02 in 0.00 W/m2
00:50 21.7 °F 19.5 °F 29.95 in Calm     91% 0.01 in 0.00 W/m2
00:55 21.7 °F 19.5 °F 29.96 in Calm     91% 0.01 in 0.00 W/m2
01:00 21.7 °F 19.5 °F 29.96 in Calm     91% 0.02 in 0.00 W/m2
01:05 21.7 °F 19.5 °F 29.98 in Calm     91% 0.02 in 0.00 W/m2
01:10 21.7 °F 19.5 °F 29.97 in Calm     91% 0.02 in 0.00 W/m2
01:15 21.6 °F 19.4 °F 29.98 in Calm     91% 0.01 in 0.00 W/m2
01:20 21.6 °F 19.4 °F 29.98 in Calm   2.0 mph 91% 0.01 in 0.00 W/m2
01:25 21.6 °F 19.4 °F 29.98 in NNW 2.0 mph 2.0 mph 91% 0.01 in 0.00 W/m2
01:30 21.5 °F 19.3 °F 29.98 in Calm     91% 0.01 in 0.00 W/m2
01:35 21.6 °F 19.4 °F 29.99 in Calm   1.0 mph 91% 0.01 in 0.00 W/m2
01:40 21.6 °F 19.4 °F 29.99 in North 1.0 mph 3.0 mph 91% 0.01 in 0.00 W/m2
01:45 21.6 °F 19.4 °F 29.99 in NNW 1.0 mph 5.0 mph 91% 0.01 in 0.00 W/m2
01:50 21.6 °F 19.4 °F 29.99 in Calm   2.0 mph 91% 0.01 in 0.00 W/m2
01:55 21.6 °F 19.4 °F 29.99 in NNW 4.0 mph 4.0 mph 91% 0.01 in 0.00 W/m2
02:00 21.5 °F 19.3 °F 29.99 in Calm     91% 0.00 in 0.00 W/m2
02:05 21.5 °F 19.3 °F 29.99 in Calm   2.0 mph 91% 0.00 in 0.00 W/m2
02:10 21.4 °F 19.2 °F 29.99 in Calm     91% 0.00 in 0.00 W/m2
02:15 21.4 °F 19.2 °F 30.00 in Calm     91% 0.00 in 0.00 W/m2
02:20 21.4 °F 19.2 °F 30.00 in Calm     91% 0.00 in 0.00 W/m2
02:25 21.4 °F 19.2 °F 29.99 in Calm   3.0 mph 91% 0.00 in 0.00 W/m2
02:30 21.3 °F 19.1 °F 29.99 in Calm     91% 0.00 in 0.00 W/m2
02:35 21.3 °F 19.1 °F 29.99 in Calm     91% 0.00 in 0.00 W/m2
02:40 21.3 °F 19.1 °F 30.00 in Calm   1.0 mph 91% 0.00 in 0.00 W/m2
02:45 21.3 °F 19.1 °F 29.99 in NW 1.0 mph 1.0 mph 91% 0.00 in 0.00 W/m2
02:50 21.2 °F 19.0 °F 29.99 in Calm   1.0 mph 91% 0.00 in 0.00 W/m2
02:55 21.1 °F 18.9 °F 29.99 in Calm     91% 0.00 in 0.00 W/m2
03:00 21.1 °F 18.9 °F 29.99 in North 2.0 mph 2.0 mph 91% 0.00 in 0.00 W/m2
03:05 21.0 °F 18.8 °F 29.99 in Calm     91% 0.00 in 0.00 W/m2
03:10 20.9 °F 18.7 °F 30.00 in North 1.0 mph 1.0 mph 91% 0.00 in 0.00 W/m2
03:15 20.8 °F 18.6 °F 30.00 in NW 4.0 mph 4.0 mph 91% 0.00 in 0.00 W/m2
03:20 20.8 °F 18.6 °F 29.99 in Calm     91% 0.00 in 0.00 W/m2
03:25 20.7 °F 18.5 °F 30.00 in WNW 2.0 mph 6.0 mph 91% 0.00 in 0.00 W/m2
03:30 20.6 °F 18.4 °F 30.00 in NNE 2.0 mph 2.0 mph 91% 0.00 in 0.00 W/m2
03:35 20.5 °F 18.3 °F 30.00 in Calm     91% 0.00 in 0.00 W/m2
03:40 20.5 °F 18.3 °F 30.00 in NNW 1.0 mph 2.0 mph 91% 0.00 in 0.00 W/m2
03:45 20.4 °F 18.2 °F 30.00 in Calm     91% 0.00 in 0.00 W/m2
03:50 20.4 °F 17.9 °F 30.00 in Calm   1.0 mph 90% 0.00 in 0.00 W/m2
03:55 20.3 °F 17.8 °F 30.00 in North 3.0 mph 5.0 mph 90% 0.00 in 0.00 W/m2
04:00 20.2 °F 17.7 °F 30.00 in Calm     90% 0.00 in 0.00 W/m2
04:05 20.2 °F 17.7 °F 30.00 in Calm   3.0 mph 90% 0.00 in 0.00 W/m2
04:10 20.2 °F 17.7 °F 30.00 in Calm     90% 0.00 in 0.00 W/m2
04:15 20.2 °F 17.7 °F 30.01 in Calm     90% 0.00 in 0.00 W/m2
04:20 20.1 °F 17.6 °F 30.01 in Calm   3.0 mph 90% 0.00 in 0.00 W/m2
04:25 20.2 °F 18.0 °F 30.01 in Calm     91% 0.00 in 0.00 W/m2
04:30 20.1 °F 17.9 °F 30.01 in Calm     91% 0.00 in 0.00 W/m2
04:35 20.0 °F 17.8 °F 30.02 in North 1.0 mph 1.0 mph 91% 0.00 in 0.00 W/m2
04:40 20.0 °F 17.8 °F 30.02 in Calm   1.0 mph 91% 0.00 in 0.00 W/m2
04:45 20.0 °F 17.8 °F 30.03 in Calm     91% 0.00 in 0.00 W/m2
04:50 20.0 °F 17.5 °F 30.04 in Calm     90% 0.00 in 0.00 W/m2
04:55 19.9 °F 17.5 °F 30.04 in NW 2.0 mph 3.0 mph 90% 0.00 in 0.00 W/m2
05:00 19.8 °F 17.4 °F 30.05 in NNE 4.0 mph 4.0 mph 90% 0.00 in 0.00 W/m2
05:05 19.7 °F 17.2 °F 30.04 in North 1.0 mph 3.0 mph 90% 0.00 in 0.00 W/m2
05:10 19.7 °F 17.2 °F 30.05 in Calm     90% 0.00 in 0.00 W/m2
05:15 19.7 °F 17.2 °F 30.04 in Calm   1.0 mph 90% 0.00 in 0.00 W/m2
05:20 19.6 °F 17.1 °F 30.05 in Calm     90% 0.00 in 0.00 W/m2
05:25 19.4 °F 17.0 °F 30.05 in Calm   1.0 mph 90% 0.00 in 0.00 W/m2
05:30 19.3 °F 16.9 °F 30.06 in Calm     90% 0.00 in 0.00 W/m2
05:35 19.2 °F 16.8 °F 30.06 in Calm     90% 0.00 in 0.00 W/m2
05:40 19.2 °F 16.8 °F 30.07 in Calm   3.0 mph 90% 0.00 in 0.00 W/m2
05:45 19.1 °F 16.7 °F 30.07 in Calm     90% 0.00 in 0.00 W/m2
05:50 19.0 °F 16.6 °F 30.06 in NW 3.0 mph 4.0 mph 90% 0.00 in 0.00 W/m2
05:55 18.8 °F 16.4 °F 30.06 in Calm   5.0 mph 90% 0.00 in 0.00 W/m2
06:00 18.6 °F 16.2 °F 30.07 in WNW 5.0 mph 6.0 mph 90% 0.00 in 0.00 W/m2
06:05 18.3 °F 15.6 °F 30.05 in NNW 4.0 mph 6.0 mph 89% 0.00 in 0.00 W/m2
06:10 18.1 °F 15.4 °F 30.07 in NW 1.0 mph 7.0 mph 89% 0.00 in 0.00 W/m2
06:15 18.0 °F 15.3 °F 30.05 in NW 6.0 mph 6.0 mph 89% 0.00 in 0.00 W/m2
06:20 17.9 °F 15.2 °F 30.05 in Calm   2.0 mph 89% 0.00 in 0.00 W/m2
06:25 17.8 °F 15.1 °F 30.07 in NNW 2.0 mph 4.0 mph 89% 0.00 in 0.00 W/m2
06:30 17.8 °F 14.9 °F 30.09 in Calm     88% 0.00 in 0.00 W/m2
06:35 17.7 °F 14.8 °F 30.11 in NNW 3.0 mph 5.0 mph 88% 0.00 in 0.00 W/m2
06:40 17.7 °F 14.8 °F 30.11 in Calm     88% 0.00 in 0.00 W/m2
06:45 17.6 °F 14.4 °F 30.09 in North 1.0 mph 2.0 mph 87% 0.00 in 0.00 W/m2
06:50 17.6 °F 14.4 °F 30.10 in Calm   4.0 mph 87% 0.00 in 0.00 W/m2
06:55 17.6 °F 14.1 °F 30.10 in NNW 1.0 mph 1.0 mph 86% 0.00 in 0.00 W/m2
07:00 17.6 °F 14.4 °F 30.09 in Calm     87% 0.00 in 0.00 W/m2
07:05 17.7 °F 14.5 °F 30.10 in Calm   2.0 mph 87% 0.00 in 0.00 W/m2
07:10 17.6 °F 14.1 °F 30.08 in North 3.0 mph 3.0 mph 86% 0.00 in 0.00 W/m2
07:15 17.6 °F 14.1 °F 30.08 in Calm   2.0 mph 86% 0.00 in 0.00 W/m2
07:22 17.4 °F 13.9 °F 30.08 in NW 5.0 mph 5.0 mph 86% 0.00 in 0.00 W/m2
07:27 17.3 °F 13.6 °F 30.09 in West 1.0 mph 5.0 mph 85% 0.00 in 5.00 W/m2
07:32 17.3 °F 13.6 °F 30.10 in WNW 6.0 mph 8.0 mph 85% 0.00 in 0.00 W/m2
07:37 17.3 °F 13.6 °F 30.11 in West 2.0 mph 4.0 mph 85% 0.00 in 0.00 W/m2
07:42 17.2 °F 13.5 °F 30.11 in West 6.0 mph 7.0 mph 85% 0.00 in 5.00 W/m2
07:47 17.0 °F 13.0 °F 30.13 in NW 2.0 mph 5.0 mph 84% 0.00 in 5.00 W/m2
07:52 16.9 °F 12.9 °F 30.13 in WNW 2.0 mph 2.0 mph 84% 0.00 in 11.00 W/m2
07:57 16.7 °F 12.7 °F 30.14 in NW 5.0 mph 10.0 mph 84% 0.00 in 23.00 W/m2
08:02 16.5 °F 12.2 °F 30.15 in West 6.0 mph 6.0 mph 83% 0.00 in 40.00 W/m2
08:07 16.3 °F 12.1 °F 30.16 in WNW 4.0 mph 6.0 mph 83% 0.00 in 39.00 W/m2
08:12 16.0 °F 11.5 °F 30.17 in West 2.0 mph 6.0 mph 82% 0.00 in 46.00 W/m2
08:17 15.8 °F 11.3 °F 30.17 in Calm   2.0 mph 82% 0.00 in 42.00 W/m2
08:22 15.7 °F 11.2 °F 30.17 in West 4.0 mph 4.0 mph 82% 0.00 in 40.00 W/m2
08:27 15.6 °F 11.1 °F 30.17 in NNE 6.0 mph 8.0 mph 82% 0.00 in 172.00 W/m2
08:32 15.7 °F 10.9 °F 30.17 in North 2.0 mph 5.0 mph 81% 0.00 in 193.00 W/m2
08:37 15.9 °F 11.1 °F 30.18 in West 3.0 mph 9.0 mph 81% 0.00 in 216.00 W/m2
08:42 16.2 °F 11.7 °F 30.19 in Calm     82% 0.00 in 246.00 W/m2
08:47 16.4 °F 11.6 °F 30.19 in NNW 10.0 mph 10.0 mph 81% 0.00 in 272.00 W/m2
08:52 16.6 °F 11.8 °F 30.18 in NNW 3.0 mph 3.0 mph 81% 0.00 in 109.00 W/m2
08:57 16.7 °F 11.9 °F 30.19 in NNE 5.0 mph 7.0 mph 81% 0.00 in 200.00 W/m2
09:02 16.6 °F 11.5 °F 30.19 in Calm   5.0 mph 80% 0.00 in 148.00 W/m2
09:07 16.6 °F 11.5 °F 30.20 in NW 3.0 mph 3.0 mph 80% 0.00 in 251.00 W/m2
09:12 16.8 °F 11.7 °F 30.19 in WNW 5.0 mph 5.0 mph 80% 0.00 in 162.00 W/m2
09:17 16.6 °F 11.2 °F 30.19 in Calm   10.0 mph 79% 0.00 in 149.00 W/m2
09:22 16.4 °F 11.0 °F 30.20 in WNW 6.0 mph 6.0 mph 79% 0.00 in 313.00 W/m2
09:27 16.3 °F 10.9 °F 30.20 in Calm   5.0 mph 79% 0.00 in 304.00 W/m2
09:32 16.5 °F 10.9 °F 30.20 in NW 4.0 mph 8.0 mph 78% 0.00 in 374.00 W/m2
09:37 16.7 °F 11.1 °F 30.20 in WNW 2.0 mph 8.0 mph 78% 0.00 in 283.00 W/m2
09:42 17.1 °F 11.7 °F 30.20 in West 4.0 mph 5.0 mph 79% 0.00 in 341.00 W/m2
09:47 17.6 °F 11.9 °F 30.19 in West 3.0 mph 6.0 mph 78% 0.00 in 418.00 W/m2
09:52 17.5 °F 11.5 °F 30.20 in West 4.0 mph 4.0 mph 77% 0.00 in 239.00 W/m2
09:57 17.6 °F 11.6 °F 30.20 in Calm   8.0 mph 77% 0.00 in 540.00 W/m2
10:02 18.2 °F 12.2 °F 30.21 in NW 6.0 mph 11.0 mph 77% 0.00 in 631.00 W/m2
10:07 18.1 °F 11.5 °F 30.20 in WNW 5.0 mph 10.0 mph 75% 0.00 in 561.00 W/m2
10:12 18.1 °F 12.1 °F 30.19 in NNW 16.0 mph 16.0 mph 77% 0.00 in 490.00 W/m2
10:17 18.4 °F 12.1 °F 30.20 in Calm   1.0 mph 76% 0.00 in 557.00 W/m2
10:22 18.2 °F 11.3 °F 30.19 in WNW 4.0 mph 6.0 mph 74% 0.00 in 473.00 W/m2
10:27 18.3 °F 11.4 °F 30.20 in NW 2.0 mph 10.0 mph 74% 0.00 in 483.00 W/m2
10:32 18.2 °F 11.3 °F 30.20 in NW 9.0 mph 14.0 mph 74% 0.00 in 543.00 W/m2
10:37 18.5 °F 11.6 °F 30.21 in NNW 5.0 mph 5.0 mph 74% 0.00 in 571.00 W/m2
10:42 18.3 °F 10.8 °F 30.21 in West 3.0 mph 4.0 mph 72% 0.00 in 483.00 W/m2
10:47 18.2 °F 11.0 °F 30.21 in Calm   5.0 mph 73% 0.00 in 227.00 W/m2
10:52 18.4 °F 11.5 °F 30.22 in NW 8.0 mph 8.0 mph 74% 0.00 in 202.00 W/m2
10:57 18.6 °F 11.7 °F 30.22 in NNW 3.0 mph 6.0 mph 74% 0.00 in 568.00 W/m2
11:02 19.0 °F 11.8 °F 30.22 in WNW 1.0 mph 6.0 mph 73% 0.00 in 559.00 W/m2
11:07 19.1 °F 11.6 °F 30.22 in WNW 3.0 mph 7.0 mph 72% 0.00 in 568.00 W/m2
11:12 19.1 °F 11.6 °F 30.22 in NNW 1.0 mph 3.0 mph 72% 0.00 in 621.00 W/m2
11:17 19.2 °F 12.0 °F 30.21 in NNW 4.0 mph 4.0 mph 73% 0.00 in 545.00 W/m2
11:22 19.1 °F 11.9 °F 30.22 in WNW 1.0 mph 6.0 mph 73% 0.00 in 360.00 W/m2
11:27 19.2 °F 12.3 °F 30.22 in NW 7.0 mph 7.0 mph 74% 0.00 in 360.00 W/m2
11:28 19.2 °F 12.3 °F 30.22 in West 6.0 mph 7.0 mph 74% 0.00 in 258.00 W/m2
11:33 19.4 °F 12.8 °F 30.23 in NNW 2.0 mph 11.0 mph 75% 0.00 in 450.00 W/m2
11:38 19.4 °F 11.9 °F 30.23 in NNE 2.0 mph 5.0 mph 72% 0.00 in 366.00 W/m2
11:43 19.5 °F 12.0 °F 30.23 in North 5.0 mph 8.0 mph 72% 0.00 in 628.00 W/m2
11:48 19.7 °F 12.1 °F 30.24 in WNW 3.0 mph 8.0 mph 72% 0.00 in 700.00 W/m2
11:53 19.6 °F 12.1 °F 30.25 in NW 8.0 mph 8.0 mph 72% 0.00 in 696.00 W/m2
11:58 19.8 °F 12.2 °F 30.25 in West 7.0 mph 7.0 mph 72% 0.00 in 696.00 W/m2
12:03 19.8 °F 12.2 °F 30.24 in NW 2.0 mph 4.0 mph 72% 0.00 in 322.00 W/m2
12:08 19.9 °F 12.7 °F 30.24 in WNW 7.0 mph 7.0 mph 73% 0.00 in 322.00 W/m2
12:13 20.0 °F 12.8 °F 30.25 in NW 7.0 mph 8.0 mph 73% 0.00 in 397.00 W/m2
12:18 19.9 °F 12.3 °F 30.26 in WSW 2.0 mph 4.0 mph 72% 0.00 in 288.00 W/m2
12:23 19.7 °F 12.1 °F 30.26 in WNW 3.0 mph 5.0 mph 72% 0.00 in 290.00 W/m2
12:28 20.1 °F 13.5 °F 30.25 in Calm   2.0 mph 75% 0.00 in 239.00 W/m2
12:33 20.2 °F 12.9 °F 30.26 in NNW 6.0 mph 8.0 mph 73% 0.00 in 367.00 W/m2
12:38 20.4 °F 13.1 °F 30.27 in Calm   2.0 mph 73% 0.00 in 244.00 W/m2
12:43 20.6 °F 13.3 °F 30.27 in North 4.0 mph 4.0 mph 73% 0.00 in 287.00 W/m2
12:48 20.4 °F 12.8 °F 30.27 in NNW 8.0 mph 8.0 mph 72% 0.00 in 278.00 W/m2
12:53 20.4 °F 13.1 °F 30.27 in Calm   2.0 mph 73% 0.00 in 323.00 W/m2
12:58 20.9 °F 13.6 °F 30.26 in NNW 6.0 mph 10.0 mph 73% 0.00 in 914.00 W/m2
13:03 20.8 °F 12.9 °F 30.26 in West 4.0 mph 4.0 mph 71% 0.00 in 341.00 W/m2
13:08 20.6 °F 12.7 °F 30.26 in NNW 1.0 mph 3.0 mph 71% 0.00 in 309.00 W/m2
13:13 20.8 °F 13.2 °F 30.26 in Calm   5.0 mph 72% 0.00 in 345.00 W/m2
13:18 20.6 °F 12.7 °F 30.26 in NNW 4.0 mph 7.0 mph 71% 0.00 in 269.00 W/m2
13:23 20.4 °F 12.5 °F 30.27 in NNW 8.0 mph 10.0 mph 71% 0.00 in 257.00 W/m2
13:28 20.3 °F 12.4 °F 30.26 in NNW 5.0 mph 5.0 mph 71% 0.00 in 239.00 W/m2
13:33 20.6 °F 13.0 °F 30.26 in West 7.0 mph 7.0 mph 72% 0.00 in 230.00 W/m2
13:38 21.0 °F 13.4 °F 30.26 in WNW 3.0 mph 6.0 mph 72% 0.00 in 522.00 W/m2
13:43 20.8 °F 12.6 °F 30.26 in NW 1.0 mph 2.0 mph 70% 0.00 in 747.00 W/m2
13:48 21.1 °F 13.2 °F 30.27 in NW 7.0 mph 7.0 mph 71% 0.00 in 717.00 W/m2
13:53 20.9 °F 12.7 °F 30.27 in West 5.0 mph 5.0 mph 70% 0.00 in 513.00 W/m2
13:58 21.3 °F 13.4 °F 30.27 in North 11.0 mph 11.0 mph 71% 0.00 in 408.00 W/m2
14:03 21.8 °F 13.9 °F 30.26 in Calm   2.0 mph 71% 0.00 in 478.00 W/m2
14:08 21.7 °F 13.4 °F 30.26 in NNW 5.0 mph 9.0 mph 70% 0.00 in 250.00 W/m2
14:13 21.1 °F 12.5 °F 30.26 in NNW 6.0 mph 9.0 mph 69% 0.00 in 281.00 W/m2
14:18 21.2 °F 13.3 °F 30.27 in West 1.0 mph 1.0 mph 71% 0.00 in 696.00 W/m2
14:23 21.5 °F 13.2 °F 30.27 in WNW 2.0 mph 6.0 mph 70% 0.00 in 294.00 W/m2
14:28 21.5 °F 13.2 °F 30.28 in West 3.0 mph 3.0 mph 70% 0.00 in 390.00 W/m2
14:33 21.6 °F 13.3 °F 30.28 in West 2.0 mph 2.0 mph 70% 0.00 in 740.00 W/m2
14:38 21.9 °F 14.0 °F 30.29 in West 6.0 mph 6.0 mph 71% 0.00 in 385.00 W/m2
14:43 21.9 °F 13.6 °F 30.30 in WNW 3.0 mph 3.0 mph 70% 0.00 in 236.00 W/m2
14:48 21.3 °F 12.7 °F 30.30 in NW 1.0 mph 4.0 mph 69% 0.00 in 380.00 W/m2
14:53 21.2 °F 13.0 °F 30.30 in WNW 2.0 mph 2.0 mph 70% 0.00 in 234.00 W/m2
14:58 21.1 °F 12.9 °F 30.30 in WNW 2.0 mph 3.0 mph 70% 0.00 in 225.00 W/m2
15:03 21.0 °F 12.8 °F 30.31 in NW 2.0 mph 4.0 mph 70% 0.00 in 563.00 W/m2
15:08 21.1 °F 12.9 °F 30.30 in WNW 3.0 mph 3.0 mph 70% 0.00 in 316.00 W/m2
15:13 20.9 °F 12.7 °F 30.31 in NNE 3.0 mph 6.0 mph 70% 0.00 in 206.00 W/m2
15:18 20.8 °F 12.6 °F 30.32 in NNW 15.0 mph 15.0 mph 70% 0.00 in 200.00 W/m2
15:23 20.7 °F 12.5 °F 30.32 in NNW 2.0 mph 2.0 mph 70% 0.00 in 172.00 W/m2
15:28 20.6 °F 12.4 °F 30.32 in NNW 5.0 mph 5.0 mph 70% 0.00 in 195.00 W/m2
15:33 20.8 °F 12.9 °F 30.33 in NNW 3.0 mph 7.0 mph 71% 0.00 in 239.00 W/m2
15:38 20.8 °F 12.6 °F 30.33 in NNW 4.0 mph 6.0 mph 70% 0.00 in 202.00 W/m2
SouthEast Lincoln Weather
Compliments of Weather Underground - 2.5 mb